Veles Airstrip

LW70 · Lozovo, North Macedonia

METAR history LW70 · Veles Airstrip

Below you see METARs of the last few days. Select a year to browse through older METARs, from the year 2007 onwards.

May 21, 2024

Time Code Weather Temp. Visibility Ceiling Wind METAR/SPECI
04:50
V
18 °C 10 km+ 3,200 ft Var Var 2 kt METAR LWSK 210250Z VRB02KT 9999 BKN032 18/15 Q1013 NOSIG
04:20
V
17 °C 10 km+ 3,200 ft 360° 360° 0 kt METAR LWSK 210220Z 00000KT 9999 BKN032 17/16 Q1014 NOSIG
03:50
V
17 °C 10 km+ 3,200 ft 150° 150° 2 kt METAR LWSK 210150Z 15002KT 9999 BKN032 17/15 Q1014 NOSIG
03:20
V
17 °C 10 km+ - Var Var 1 kt METAR LWSK 210120Z VRB01KT 9999 SCT039 17/15 Q1014 NOSIG
02:50
V
17 °C 10 km+ - Var Var 2 kt METAR LWSK 210050Z VRB02KT 9999 SCT039 17/15 Q1013 NOSIG
02:20
V
18 °C 10 km+ - 160° 160° 3 kt METAR LWSK 210020Z 16003KT 130V190 9999 SCT039 18/15 Q1014 NOSIG
01:50
V
18 °C 10 km+ 3,900 ft 160° 160° 4 kt METAR LWSK 202350Z 16004KT 100V190 9999 BKN039 18/15 Q1014 NOSIG
01:20
V
19 °C 10 km+ - 140° 140° 4 kt METAR LWSK 202320Z 14004KT 110V200 9999 SCT052 19/16 Q1014 NOSIG
00:50
V
19 °C 10 km+ - 140° 140° 5 kt METAR LWSK 202250Z 14005KT 9999 SCT052 19/16 Q1014 NOSIG
00:20
V
19 °C 10 km+ - 120° 120° 4 kt METAR LWSK 202220Z 12004KT 100V190 9999 SCT052 19/16 Q1014 NOSIG

May 20, 2024

Time Code Weather Temp. Visibility Ceiling Wind METAR/SPECI
23:50
V
20 °C 10 km+ - 110° 110° 6 kt METAR LWSK 202150Z 11006KT 9999 SCT052 20/16 Q1014 NOSIG
23:20
V
20 °C 10 km+ - 100° 100° 5 kt METAR LWSK 202120Z 10005KT 060V120 9999 SCT052 20/16 Q1014 NOSIG
22:50
V
20 °C 10 km+ - 100° 100° 7 kt METAR LWSK 202050Z 10007KT 9999 SCT052 20/17 Q1014 NOSIG
22:20
V
21 °C 10 km+ 5,900 ft 090° 090° 6 kt METAR LWSK 202020Z 09006KT 040V120 9999 BKN059 21/17 Q1014 NOSIG
21:50
V
21 °C 10 km+ - 130° 130° 8 kt METAR LWSK 201950Z 13008KT 9999 FEW040 21/17 Q1013 NOSIG
21:30
V
21 °C 10 km+ - 120° 120° 8 kt METAR LWSK 201930Z 12008KT 9999 FEW040 21/17 Q1013 NOSIG
20:50
V
22 °C 10 km+ - 100° 100° 6 kt METAR LWSK 201850Z 10006KT 060V130 9999 FEW040 22/18 Q1013 NOSIG
20:20
V
23 °C 10 km+ - 090° 090° 7 kt METAR LWSK 201820Z 09007KT 060V120 9999 FEW040 23/18 Q1012 NOSIG
19:50
V
23 °C 10 km+ - 100° 100° 6 kt METAR LWSK 201750Z 10006KT 080V150 9999 FEW040 23/18 Q1012 NOSIG
19:23
V
24 °C 10 km+ - 130° 130° 6 kt METAR LWSK 201723Z 13006KT 9999 FEW040 24/19 Q1012 NOSIG
18:50
V
25 °C 10 km+ - 150° 150° 6 kt METAR LWSK 201650Z 15006KT 120V180 9999 FEW040 25/19 Q1012 NOSIG
18:20
V
25 °C 10 km+ - 150° 150° 6 kt METAR LWSK 201620Z 15006KT 100V180 9999 FEW040 25/19 Q1012 NOSIG
17:50
V
25 °C 10 km+ - 160° 160° 6 kt METAR LWSK 201550Z 16006KT 130V210 9999 SCT040 25/19 Q1012 NOSIG
17:20
V
26 °C 10 km+ - 160° 160° 6 kt METAR LWSK 201520Z 16006KT 130V230 9999 SCT040 26/19 Q1012 NOSIG
16:50
V
26 °C 10 km+ - 170° 170° 5 kt METAR LWSK 201450Z 17005KT 130V200 9999 SCT040 26/19 Q1012 NOSIG
16:20
V
27 °C 10 km+ - 170° 170° 4 kt METAR LWSK 201420Z 17004KT 110V270 9999 SCT040 27/20 Q1012 NOSIG
15:50
V
26 °C 10 km+ - Var Var 6 kt METAR LWSK 201350Z VRB06KT 9999 FEW033 SCT040 26/18 Q1012 NOSIG
15:20
V
27 °C 10 km+ - 130° 130° 4 kt METAR LWSK 201320Z 13004KT 020V190 9999 SCT033 27/19 Q1012 NOSIG
14:50
V
26 °C 10 km+ - 180° 180° 4 kt METAR LWSK 201250Z 18004KT 100V270 9999 SCT033 26/19 Q1013 NOSIG
14:20
V
25 °C 10 km+ - Var Var 2 kt METAR LWSK 201220Z VRB02KT 9999 SCT033 25/19 Q1013 NOSIG
13:50
V
26 °C 10 km+ - Var Var 2 kt METAR LWSK 201150Z VRB02KT 9999 SCT033 26/19 Q1013 NOSIG
13:20
V
26 °C 10 km+ - Var Var 2 kt METAR LWSK 201120Z VRB02KT 9999 SCT033 26/18 Q1013 NOSIG
12:50
V
25 °C 10 km+ - 320° 320° 3 kt METAR LWSK 201050Z 32003KT 280V040 9999 SCT033 25/18 Q1013 NOSIG
12:20
M
24 °C 10 km+ 3,000 ft Var Var 2 kt METAR LWSK 201020Z VRB02KT 9999 FEW015 BKN030 24/18 Q1014 NOSIG
11:50
M
23 °C 10 km+ 3,000 ft Var Var 3 kt METAR LWSK 200950Z VRB03KT 9999 FEW015 BKN030 23/18 Q1014 NOSIG
11:20
M
22 °C 10 km+ 3,000 ft 360° 360° 5 kt METAR LWSK 200920Z 36005KT 320V050 9999 FEW015 BKN030 22/18 Q1014 NOSIG
10:50
M
22 °C 10 km+ 3,000 ft 030° 030° 5 kt METAR LWSK 200850Z 03005KT 350V060 9999 FEW015 BKN030 22/17 Q1014 NOSIG
10:20
M
21 °C 10 km+ 2,600 ft 030° 030° 4 kt METAR LWSK 200820Z 03004KT 340V070 9999 FEW015 BKN026 BKN070 21/17 Q1014 NOSIG
09:50
M
21 °C 10 km+ 2,600 ft 030° 030° 4 kt METAR LWSK 200750Z 03004KT 340V070 9999 FEW015 BKN026 BKN070 21/17 Q1014 NOSIG
09:20
M
20 °C 10 km+ 2,600 ft 010° 010° 3 kt METAR LWSK 200720Z 01003KT 330V060 9999 BKN026 BKN070 20/17 Q1014 NOSIG
08:50
M
20 °C 10 km+ 2,600 ft 120° 120° 4 kt METAR LWSK 200650Z 12004KT 070V190 9999 BKN026 OVC070 20/17 Q1014 NOSIG
08:20
M
19 °C 10 km+ 2,600 ft 150° 150° 3 kt METAR LWSK 200620Z 15003KT 110V200 9999 BKN026 OVC070 19/16 Q1013 NOSIG
07:50
M
19 °C 10 km+ 2,600 ft Var Var 2 kt METAR LWSK 200550Z VRB02KT 9999 BKN026 OVC070 19/17 Q1013 NOSIG
07:20
V
18 °C 10 km+ 3,200 ft 120° 120° 4 kt METAR LWSK 200520Z 12004KT 090V150 9999 SCT019 BKN032 18/16 Q1013 NOSIG
06:50
V
18 °C 10 km+ 3,200 ft Var Var 1 kt METAR LWSK 200450Z VRB01KT 9999 SCT019 BKN032 18/17 Q1013 NOSIG
06:20
V
18 °C 10 km+ 3,200 ft Var Var 2 kt METAR LWSK 200420Z VRB02KT 9999 SCT019 BKN032 18/16 Q1013 NOSIG
05:50
V
18 °C 10 km+ 3,200 ft 160° 160° 3 kt METAR LWSK 200350Z 16003KT 120V200 9999 SCT019 BKN032 18/17 Q1012 NOSIG
05:20
V
18 °C 10 km+ 3,200 ft 110° 110° 3 kt METAR LWSK 200320Z 11003KT 9999 SCT019 BKN032 18/17 Q1012 NOSIG
04:50
V
17 °C 10 km+ 3,200 ft Var Var 1 kt METAR LWSK 200250Z VRB01KT 9999 SCT019 BKN032 17/17 Q1012 NOSIG
04:20
V
18 °C 10 km+ 3,200 ft Var Var 1 kt METAR LWSK 200220Z VRB01KT 9999 SCT019 BKN032 18/17 Q1012 NOSIG
03:50
V
17 °C 10 km+ 3,200 ft Var Var 2 kt METAR LWSK 200150Z VRB02KT 9999 RA SCT019 OVC032 17/17 Q1012 NOSIG
03:30
V
17 °C 10 km+ 4,000 ft 360° 360° 0 kt METAR LWSK 200130Z 00000KT 9999 SCT026 BKN040 17/07 Q1012 NOSIG
03:00
V
18 °C 10 km+ 8,000 ft 360° 360° 0 kt METAR LWSK 200100Z 00000KT 9999 SCT033 BKN080 18/04 Q1012 NOSIG
02:50
V
18 °C 10 km+ 7,900 ft Var Var 1 kt METAR LWSK 200050Z VRB01KT 9999 SCT036 BKN079 18/16 Q1012 NOSIG
02:20
V
18 °C 10 km+ - Var Var 1 kt METAR LWSK 200020Z VRB01KT 9999 SCT080 18/16 Q1012 NOSIG
01:50
V
18 °C 10 km+ - Var Var 1 kt METAR LWSK 192350Z VRB01KT 9999 SCT080 18/16 Q1012 NOSIG
01:20
V
18 °C 10 km+ - 040° 040° 4 kt METAR LWSK 192320Z 04004KT 020V080 9999 FEW088 18/17 Q1012 NOSIG
00:50
V
18 °C 10 km+ - Var Var 1 kt METAR LWSK 192250Z VRB01KT CAVOK 18/16 Q1013 NOSIG
00:20
V
18 °C 10 km+ - Var Var 2 kt METAR LWSK 192220Z VRB02KT CAVOK 18/16 Q1012 NOSIG

May 19, 2024

Time Code Weather Temp. Visibility Ceiling Wind METAR/SPECI
23:50
V
19 °C 10 km+ - 070° 070° 3 kt METAR LWSK 192150Z 07003KT 030V110 CAVOK 19/16 Q1012 NOSIG
23:20
V
17 °C 10 km+ - Var Var 1 kt METAR LWSK 192120Z VRB01KT CAVOK 17/16 Q1012 NOSIG
22:50
V
18 °C 10 km+ - Var Var 1 kt METAR LWSK 192050Z VRB01KT CAVOK 18/17 Q1012 NOSIG
22:20
V
19 °C 10 km+ - Var Var 2 kt METAR LWSK 192020Z VRB02KT CAVOK 19/17 Q1013 NOSIG
21:50
V
20 °C 10 km+ - 120° 120° 3 kt METAR LWSK 191950Z 12003KT 090V150 CAVOK 20/17 Q1013 NOSIG
21:20
V
21 °C 10 km+ - 100° 100° 9 kt METAR LWSK 191920Z 10009KT 060V130 CAVOK 21/17 Q1012 NOSIG
20:50
V
21 °C 10 km+ - 090° 090° 7 kt METAR LWSK 191850Z 09007KT CAVOK 21/18 Q1012 NOSIG
20:20
V
21 °C 10 km+ - 090° 090° 5 kt METAR LWSK 191820Z 09005KT CAVOK 21/18 Q1012 NOSIG
19:50
V
22 °C 10 km+ - 110° 110° 4 kt METAR LWSK 191750Z 11004KT 070V160 CAVOK 22/18 Q1012 NOSIG
19:20
V
23 °C 10 km+ - 160° 160° 4 kt METAR LWSK 191720Z 16004KT 9999 FEW029 23/18 Q1012 NOSIG
18:50
V
24 °C 10 km+ - 160° 160° 5 kt METAR LWSK 191650Z 16005KT 130V200 9999 FEW029 24/19 Q1012 NOSIG
18:22
V
24 °C 10 km+ - 160° 160° 5 kt METAR LWSK 191622Z 16005KT 120V210 9999 FEW027 24/19 Q1012 NOSIG
17:50
V
25 °C 10 km+ - 170° 170° 3 kt METAR LWSK 191550Z 17003KT 090V250 9999 FEW027 25/19 Q1012 NOSIG
17:20
V
26 °C 10 km+ - Var Var 3 kt METAR LWSK 191520Z VRB03KT 9999 FEW027 26/18 Q1011 NOSIG
16:50
V
25 °C 10 km+ - 120° 120° 4 kt METAR LWSK 191450Z 12004KT 040V150 9999 FEW027 25/17 Q1012 NOSIG
16:27
V
25 °C 10 km+ - 100° 100° 5 kt METAR LWSK 191427Z 10005KT 060V140 9999 SCT027 25/19 Q1012 NOSIG
15:50
V
25 °C 10 km+ - 140° 140° 4 kt METAR LWSK 191350Z 14004KT 070V200 9999 SCT027 25/18 Q1013 NOSIG
15:25
V
25 °C 10 km+ - 160° 160° 5 kt METAR LWSK 191325Z 16005KT 120V210 9999 SCT027 25/19 Q1013 NOSIG
15:24
V
25 °C 10 km+ - 160° 160° 5 kt METAR LWSK 191324Z 16005KT 120V210 9999 SCT027 25/19 Q1013 NOSIG
14:57
V
26 °C 10 km+ 3,600 ft 160° 160° 4 kt METAR LWSK 191257Z 16004KT 070V220 9999 FEW015 BKN036 26/19 Q1013 NOSIG
14:20
V
25 °C 10 km+ 3,600 ft Var Var 3 kt METAR LWSK 191220Z VRB03KT 9999 FEW015 BKN036 25/18 Q1013 NOSIG
13:50
V
24 °C 10 km+ 3,600 ft Var Var 3 kt METAR LWSK 191150Z VRB03KT 9999 FEW015 BKN036 24/19 Q1014 NOSIG
13:20
V
24 °C 10 km+ 3,600 ft 080° 080° 3 kt METAR LWSK 191120Z 08003KT 020V140 9999 FEW015 BKN036 24/18 Q1014 NOSIG
12:53
V
23 °C 10 km+ 3,600 ft 160° 160° 3 kt METAR LWSK 191053Z 16003KT 070V200 9999 FEW011 BKN036 23/17 Q1014 NOSIG
12:25
V
22 °C 10 km+ 3,600 ft 100° 100° 6 kt METAR LWSK 191025Z 10006KT 040V160 9999 FEW011 BKN036 22/18 Q1014 NOSIG
11:50
V
23 °C 10 km+ 3,900 ft 080° 080° 4 kt METAR LWSK 190950Z 08004KT 010V120 9999 FEW011 BKN039 23/20 Q1014 NOSIG
11:30
V
23 °C 10 km+ - Var Var 3 kt METAR LWSK 190930Z VRB03KT 9999 FEW011 SCT078 23/20 Q1014 NOSIG
10:50
V
23 °C 10 km+ 7,800 ft Var Var 2 kt METAR LWSK 190850Z VRB02KT 9999 SCT011 BKN078 23/21 Q1014 NOSIG
10:20
M
20 °C 10 km+ 2,600 ft Var Var 1 kt METAR LWSK 190820Z VRB01KT 9999 SCT011 OVC026 20/20 Q1014 NOSIG
09:59
M
20 °C 10 km+ 2,600 ft Var Var 1 kt METAR LWSK 190759Z VRB01KT 9999 SCT011 OVC026 20/19 Q1014 NOSIG
09:20
M
20 °C 10 km+ 2,900 ft Var Var 2 kt METAR LWSK 190720Z VRB02KT 9999 SCT010 OVC029 20/20 Q1014 NOSIG
08:50
M
20 °C 10 km+ 2,900 ft Var Var 1 kt METAR LWSK 190650Z VRB01KT 9999 SCT010 OVC029 20/20 Q1014 NOSIG
08:20
M
19 °C 10 km+ 2,900 ft Var Var 2 kt METAR LWSK 190620Z VRB02KT 9999 SCT010 OVC029 19/19 Q1014 NOSIG
07:50
M
19 °C 10 km+ 2,900 ft Var Var 1 kt METAR LWSK 190550Z VRB01KT 9999 -DZ SCT010 OVC029 19/19 Q1014 NOSIG
07:20
V
18 °C 10 km+ 3,500 ft 150° 150° 2 kt METAR LWSK 190520Z 15002KT 9999 -RA SCT010 OVC035 18/18 Q1014 NOSIG
06:50
V
18 °C 10 km+ 4,000 ft Var Var 1 kt METAR LWSK 190450Z VRB01KT 9999 FEW005 SCT015 OVC040 18/18 Q1013 NOSIG
06:20
V
18 °C 8 km 4,000 ft Var Var 2 kt METAR LWSK 190420Z VRB02KT 8000 -RA FEW005 SCT015 OVC040 18/18 Q1013 NOSIG
05:50
V
17 °C 10 km+ 3,500 ft 030° 030° 2 kt METAR LWSK 190350Z 03002KT 9999 -RA SCT010 OVC035 17/17 Q1013 NOSIG
05:20
V
17 °C 8 km 3,500 ft 070° 070° 2 kt METAR LWSK 190320Z 07002KT 8000 -RA SCT010 OVC035 17/17 Q1013 NOSIG
04:50
V
17 °C 8 km 3,500 ft Var Var 2 kt METAR LWSK 190250Z VRB02KT 8000 -RA SCT010 OVC035 17/17 Q1013 NOSIG
04:20
V
17 °C 8 km 3,500 ft 360° 360° 0 kt METAR LWSK 190220Z 00000KT 8000 -RA SCT010 BKN035 OVC080 17/17 Q1013 NOSIG
03:50
V
17 °C 8 km 3,500 ft Var Var 2 kt METAR LWSK 190150Z VRB02KT 8000 -RA SCT015 BKN035 OVC080 17/17 Q1013 NOSIG
03:20
V
18 °C 10 km+ 3,500 ft 140° 140° 3 kt METAR LWSK 190120Z 14003KT 080V200 9999 -RA SCT015 BKN035 OVC080 18/18 Q1013 NOSIG
02:50
V
18 °C 10 km+ 8,000 ft 140° 140° 3 kt METAR LWSK 190050Z 14003KT 100V170 9999 -RA FEW015 SCT035 BKN080 18/18 Q1013 NOSIG
02:20
V
18 °C 10 km+ 8,000 ft 120° 120° 3 kt METAR LWSK 190020Z 12003KT 080V140 9999 -RA FEW015 SCT035 BKN080 18/18 Q1013 NOSIG
01:50
V
18 °C 10 km+ 8,000 ft 160° 160° 3 kt METAR LWSK 182350Z 16003KT 9999 FEW020 SCT040 BKN080 18/18 Q1014 NOSIG
01:20
V
18 °C 10 km+ 8,000 ft 220° 220° 3 kt METAR LWSK 182320Z 22003KT 160V260 9999 -RA FEW020 SCT040 BKN080 18/17 Q1014 NOSIG
00:50
V
18 °C 10 km+ 4,000 ft 100° 100° 5 kt METAR LWSK 182250Z 10005KT 060V120 9999 -RA FEW020 SCT030TCU BKN040 18/17 Q1015 NOSIG
00:20
V
18 °C 8 km 4,000 ft 030° 030° 3 kt METAR LWSK 182220Z 03003KT 350V080 8000 RA FEW020 SCT030CB OVC040 18/17 Q1015 RETS NOSIG

May 18, 2024

Time Code Weather Temp. Visibility Ceiling Wind METAR/SPECI
23:50
M
18 °C 6 km 4,000 ft Var Var 2 kt METAR LWSK 182150Z VRB02KT 6000 TSRA FEW020 SCT030CB OVC040 18/17 Q1015 NOSIG
23:20
M
19 °C 5 km 4,000 ft Var Var 2 kt METAR LWSK 182120Z VRB02KT 5000 TSRA FEW020 SCT030CB OVC040 19/17 Q1016 NOSIG
22:50
V
20 °C 10 km+ 4,000 ft 140° 140° 10 kt METAR LWSK 182050Z 14010KT 100V190 9999 TSRA FEW020 SCT030CB OVC040 20/17 Q1014 NOSIG
22:20
V
22 °C 10 km+ 10,000 ft 120° 120° 8 kt METAR LWSK 182020Z 12008KT 9999 TS SCT030CB SCT040 BKN100 22/16 Q1014 TEMPO VRB20KT TSRA SCT033CB BKN040
21:50
V
22 °C 10 km+ 10,000 ft 100° 100° 4 kt METAR LWSK 181950Z 10004KT 040V140 9999 VCTS FEW030CB SCT040 BKN100 22/16 Q1013 TEMPO VRB15G25KT 5000 TSRA SCT033CB BKN050
21:20
V
23 °C 10 km+ 10,000 ft 090° 090° 6 kt METAR LWSK 181920Z 09006KT 060V120 9999 FEW040TCU BKN100 23/16 Q1013 TEMPO VRB15G25KT 5000 TSRA SCT033CB BKN050
20:50
V
22 °C 10 km+ 10,000 ft 130° 130° 6 kt METAR LWSK 181850Z 13006KT 090V170 9999 FEW040 BKN100 22/17 Q1013 NOSIG
20:20
V
22 °C 10 km+ 10,000 ft 130° 130° 6 kt METAR LWSK 181820Z 13006KT 9999 FEW040 BKN100 22/17 Q1013 NOSIG
19:50
V
23 °C 10 km+ - Var Var 2 kt METAR LWSK 181750Z VRB02KT 9999 FEW040 SCT100 23/18 Q1013 NOSIG
19:20
V
24 °C 10 km+ - 330° 330° 2 kt METAR LWSK 181720Z 33002KT CAVOK 24/19 Q1013 NOSIG
18:50
V
26 °C 10 km+ - 280° 280° 2 kt METAR LWSK 181650Z 28002KT CAVOK 26/19 Q1013 NOSIG
18:20
V
27 °C 10 km+ - Var Var 1 kt METAR LWSK 181620Z VRB01KT CAVOK 27/17 Q1012 NOSIG
17:50
V
28 °C 10 km+ - Var Var 1 kt METAR LWSK 181550Z VRB01KT CAVOK 28/18 Q1013 NOSIG
17:20
V
27 °C 10 km+ - Var Var 2 kt METAR LWSK 181520Z VRB02KT CAVOK 27/17 Q1013 NOSIG
16:50
V
28 °C 10 km+ - Var Var 2 kt METAR LWSK 181450Z VRB02KT 9999 FEW040 28/17 Q1013 NOSIG
16:20
V
27 °C 10 km+ - 200° 200° 3 kt METAR LWSK 181420Z 20003KT 160V240 9999 FEW040 27/18 Q1013 NOSIG
15:50
V
28 °C 10 km+ - Var Var 1 kt METAR LWSK 181350Z VRB01KT 9999 FEW040 28/17 Q1014 NOSIG
15:20
V
27 °C 10 km+ - Var Var 3 kt METAR LWSK 181320Z VRB03KT 9999 FEW040 27/18 Q1014 NOSIG
14:50
V
27 °C 10 km+ - 320° 320° 3 kt METAR LWSK 181250Z 32003KT 250V030 9999 FEW040 27/18 Q1015 NOSIG
14:20
V
27 °C 10 km+ - 300° 300° 3 kt METAR LWSK 181220Z 30003KT 230V010 9999 FEW040 27/17 Q1015 NOSIG
13:50
V
26 °C 10 km+ - 260° 260° 3 kt METAR LWSK 181150Z 26003KT 180V330 9999 FEW040 26/17 Q1015 NOSIG
13:20
V
25 °C 10 km+ - Var Var 3 kt METAR LWSK 181120Z VRB03KT 9999 FEW040 25/17 Q1016 NOSIG
12:50
V
25 °C 10 km+ - Var Var 2 kt METAR LWSK 181050Z VRB02KT 9999 FEW040 25/17 Q1016 NOSIG
12:20
V
24 °C 10 km+ - Var Var 1 kt METAR LWSK 181020Z VRB01KT CAVOK 24/16 Q1017 NOSIG
11:50
V
23 °C 10 km+ - Var Var 2 kt METAR LWSK 180950Z VRB02KT CAVOK 23/16 Q1017 NOSIG
11:20
V
22 °C 10 km+ - Var Var 2 kt METAR LWSK 180920Z VRB02KT CAVOK 22/15 Q1018 NOSIG
10:50
V
22 °C 10 km+ - Var Var 3 kt METAR LWSK 180850Z VRB03KT CAVOK 22/15 Q1018 NOSIG
10:20
V
21 °C 10 km+ - Var Var 2 kt METAR LWSK 180820Z VRB02KT CAVOK 21/15 Q1018 NOSIG
09:50
V
20 °C 10 km+ - Var Var 2 kt METAR LWSK 180750Z VRB02KT CAVOK 20/16 Q1018 NOSIG
09:20
V
19 °C 10 km+ - Var Var 2 kt METAR LWSK 180720Z VRB02KT CAVOK 19/15 Q1018 NOSIG
09:00
V
18 °C 10 km+ - 360° 360° 0 kt METAR LWSK 180700Z 00000KT CAVOK 18/04 Q1018 NOSIG
08:20
V
17 °C 10 km+ - Var Var 1 kt METAR LWSK 180620Z VRB01KT 9999 FEW060 17/14 Q1019 NOSIG
07:50
V
16 °C 10 km+ - Var Var 1 kt METAR LWSK 180550Z VRB01KT 9999 FEW060 16/13 Q1018 NOSIG
Report a change